Time;durP1;ratioP1;P1;durP2;ratioP2;P2;SDS_P1;SDS_P2;PMS_P1;PMS_P2;Temp;Humidity;BMP_temperature;BMP_pressure;BME280_temperature;BME280_humidity;BME280_pressure;Samples;Min_cycle;Max_cycle;Signal;HPM_P1;HPM_P2
2022/08/18 00:00:31;;;;;;;10.48;7.20;;;;;;;22.87;68.67;98857.08;1740577;81;21764;-45
2022/08/18 00:03:05;;;;;;;12.50;7.50;;;;;;;22.89;68.53;98853.27;1749000;82;21044;-45
2022/08/18 00:05:32;;;;;;;13.40;8.13;;;;;;;22.87;68.51;98858.47;1749250;82;21057;-45
2022/08/18 00:07:59;;;;;;;12.20;7.80;;;;;;;22.85;68.43;98856.02;1748958;82;21574;-45
2022/08/18 00:10:26;;;;;;;20.10;9.03;;;;;;;22.82;68.33;98860.44;1749201;82;21037;-45
2022/08/18 00:12:55;;;;;;;16.45;7.83;;;;;;;22.80;68.41;98857.34;1749384;82;20957;-45
2022/08/18 00:15:22;;;;;;;13.75;6.95;;;;;;;22.84;68.08;98857.23;1749261;82;21871;-45
2022/08/18 00:17:49;;;;;;;11.68;6.80;;;;;;;22.85;68.05;98858.77;1749032;82;21009;-45
2022/08/18 00:20:20;;;;;;;12.13;6.97;;;;;;;22.84;68.23;98860.77;1749012;82;21017;-45
2022/08/18 00:22:48;;;;;;;12.37;7.22;;;;;;;22.83;68.44;98853.69;1748927;82;20989;-45
2022/08/18 00:25:16;;;;;;;9.43;6.75;;;;;;;22.80;68.54;98855.97;1748856;82;23107;-45
2022/08/18 00:27:43;;;;;;;11.10;6.87;;;;;;;22.80;68.40;98861.49;1748793;82;20918;-45
2022/08/18 00:30:14;;;;;;;9.43;6.95;;;;;;;22.83;68.30;98860.60;1749038;82;20984;-45
2022/08/18 00:32:43;;;;;;;13.38;6.90;;;;;;;22.83;68.30;98863.37;1748903;82;21053;-45
2022/08/18 00:35:25;;;;;;;13.60;6.97;;;;;;;22.80;68.44;98863.52;1749017;82;21049;-45
2022/08/18 00:37:51;;;;;;;12.28;7.05;;;;;;;22.73;68.58;98861.78;1748789;82;21139;-45
2022/08/18 00:40:22;;;;;;;13.22;6.28;;;;;;;22.67;68.68;98866.31;1748878;82;21017;-45
2022/08/18 00:42:53;;;;;;;9.13;6.40;;;;;;;22.63;68.76;98862.92;1748484;82;21067;-45
2022/08/18 00:45:26;;;;;;;11.22;7.25;;;;;;;22.59;68.85;98862.30;1749227;82;21515;-45
2022/08/18 00:47:53;;;;;;;11.05;7.05;;;;;;;22.54;68.91;98855.36;1743622;82;21001;-45
2022/08/18 00:50:25;;;;;;;9.55;6.78;;;;;;;22.49;68.96;98857.94;1749332;82;21294;-45
2022/08/18 00:53:20;;;;;;;14.03;6.60;;;;;;;22.45;69.02;98858.69;1748673;81;20973;-45
2022/08/18 00:55:47;;;;;;;12.85;6.67;;;;;;;22.43;69.01;98856.97;1749003;82;21544;-45
2022/08/18 00:58:26;;;;;;;14.33;7.17;;;;;;;22.44;68.75;98862.66;1748875;82;21004;-45
2022/08/18 01:00:53;;;;;;;10.65;7.72;;;;;;;22.43;68.60;98859.73;1748603;81;21076;-45
2022/08/18 01:03:21;;;;;;;12.15;8.33;;;;;;;22.39;68.55;98856.34;1749092;82;21238;-45
2022/08/18 01:06:08;;;;;;;11.15;7.75;;;;;;;22.35;68.46;98861.23;1749149;82;20922;-45
2022/08/18 01:08:37;;;;;;;13.98;8.18;;;;;;;22.26;68.32;98853.66;1749188;81;20953;-45
2022/08/18 01:11:05;;;;;;;11.38;7.95;;;;;;;22.18;68.35;98855.12;1748955;82;21081;-45
2022/08/18 01:13:32;;;;;;;13.35;7.53;;;;;;;22.16;68.35;98856.20;1749189;82;21045;-45
2022/08/18 01:21:49;;;;;;;11.20;7.35;;;;;;;22.14;68.44;98852.33;1749223;82;21924;-45
2022/08/18 01:24:09;;;;;;;14.38;7.37;;;;;;;21.94;68.70;98851.25;1749105;82;21503;-45
2022/08/18 01:26:38;;;;;;;11.50;7.37;;;;;;;21.87;69.02;98845.97;1749093;82;21005;-45
2022/08/18 01:29:10;;;;;;;7.87;6.80;;;;;;;21.83;69.38;98848.09;1749115;82;21785;-45
2022/08/18 01:31:39;;;;;;;12.65;7.33;;;;;;;21.77;69.78;98843.75;1749317;82;21002;-45
2022/08/18 01:34:10;;;;;;;17.17;7.95;;;;;;;21.72;70.12;98850.44;1748986;82;21116;-45
2022/08/18 01:36:39;;;;;;;13.28;6.42;;;;;;;21.67;70.36;98854.53;1749549;82;20894;-45
2022/08/18 01:39:09;;;;;;;8.85;6.12;;;;;;;21.60;70.62;98853.38;1749196;82;21041;-45
2022/08/18 01:41:36;;;;;;;8.15;6.42;;;;;;;21.65;70.77;98858.34;1749258;82;21244;-45
2022/08/18 01:44:04;;;;;;;13.65;7.00;;;;;;;21.68;70.85;98856.09;1749029;82;21515;-45
2022/08/18 01:46:33;;;;;;;14.03;7.22;;;;;;;21.69;70.91;98852.86;1749283;82;21543;-45
2022/08/18 01:49:00;;;;;;;10.17;6.00;;;;;;;21.72;70.83;98855.35;1749126;82;21528;-45
2022/08/18 01:51:28;;;;;;;8.65;5.70;;;;;;;21.74;70.79;98863.94;1749037;82;21013;-45
2022/08/18 01:53:57;;;;;;;12.68;6.15;;;;;;;21.82;70.58;98861.11;1749041;82;21499;-45
2022/08/18 01:56:28;;;;;;;10.88;6.25;;;;;;;21.89;70.35;98862.23;1748944;82;20981;-45
2022/08/18 01:58:55;;;;;;;11.68;6.78;;;;;;;21.92;70.22;98857.82;1748878;82;21080;-45
2022/08/18 02:01:26;;;;;;;10.95;6.92;;;;;;;21.93;70.01;98856.00;1748980;82;21468;-45
2022/08/18 02:03:57;;;;;;;9.58;6.00;;;;;;;21.94;69.93;98854.02;1748976;82;21530;-45
2022/08/18 02:06:25;;;;;;;8.03;6.08;;;;;;;21.94;69.88;98864.45;1749085;82;21226;-45
2022/08/18 02:08:52;;;;;;;11.95;5.85;;;;;;;22.02;69.66;98867.75;1748906;82;21496;-45
2022/08/18 02:11:20;;;;;;;11.95;5.95;;;;;;;22.06;69.46;98869.16;1749214;82;20957;-45
2022/08/18 02:13:48;;;;;;;12.82;6.37;;;;;;;22.09;69.29;98868.86;1749333;82;21550;-45
2022/08/18 02:16:15;;;;;;;8.23;6.17;;;;;;;22.09;69.19;98869.64;1749239;82;21021;-45
2022/08/18 02:18:42;;;;;;;8.18;5.83;;;;;;;22.09;69.12;98866.88;1744252;82;21571;-45
2022/08/18 02:21:15;;;;;;;9.10;5.72;;;;;;;22.10;69.09;98865.66;1749501;82;21013;-45
2022/08/18 02:23:43;;;;;;;8.55;5.90;;;;;;;22.15;68.90;98869.83;1749287;82;20894;-45
2022/08/18 02:26:12;;;;;;;8.58;6.17;;;;;;;22.19;68.76;98871.08;1749559;82;21029;-45
2022/08/18 02:28:40;;;;;;;10.13;6.47;;;;;;;22.16;68.72;98873.37;1749379;82;21048;-45
2022/08/18 02:31:11;;;;;;;11.55;6.60;;;;;;;22.13;68.71;98874.25;1749254;82;21130;-45
2022/08/18 02:33:38;;;;;;;7.80;5.62;;;;;;;22.08;68.73;98866.70;1749228;82;20997;-45
2022/08/18 02:36:06;;;;;;;13.00;6.53;;;;;;;22.06;68.79;98870.55;1748919;82;21449;-45
2022/08/18 02:38:33;;;;;;;9.35;6.15;;;;;;;22.12;68.68;98868.59;1748937;82;21084;-45
2022/08/18 02:41:03;;;;;;;15.23;6.20;;;;;;;22.13;68.52;98865.97;1749031;82;20985;-45
2022/08/18 02:43:29;;;;;;;10.43;6.35;;;;;;;22.12;68.57;98868.59;1749163;82;21069;-45
2022/08/18 02:45:57;;;;;;;13.48;6.60;;;;;;;22.12;68.55;98874.11;1748928;82;20941;-45
2022/08/18 02:48:33;;;;;;;9.13;5.80;;;;;;;22.09;68.48;98882.05;1749173;82;20934;-45
2022/08/18 02:51:11;;;;;;;11.68;6.17;;;;;;;22.07;68.52;98868.55;1748952;82;21616;-45
2022/08/18 02:53:40;;;;;;;13.15;6.42;;;;;;;22.11;68.39;98877.48;1749336;82;20972;-45
2022/08/18 02:58:46;;;;;;;;;;;;;;;22.02;68.39;98876.80;1751662;82;20989;-45
2022/08/18 03:01:13;;;;;;;20.17;7.25;;;;;;;21.93;68.44;98884.98;1745478;81;20191;-45
2022/08/18 03:03:41;;;;;;;11.40;5.72;;;;;;;21.79;68.79;98881.30;1735112;82;21460;-45
2022/08/18 03:06:08;;;;;;;11.63;6.10;;;;;;;21.73;68.94;98881.73;1734930;82;21434;-45
2022/08/18 03:08:35;;;;;;;12.47;6.25;;;;;;;21.76;68.93;98880.83;1735068;82;21143;-45
2022/08/18 03:11:03;;;;;;;10.23;6.17;;;;;;;21.79;68.91;98881.30;1735044;82;21029;-45
2022/08/18 03:13:31;;;;;;;15.55;6.87;;;;;;;21.79;68.96;98880.53;1735040;82;20965;-45
2022/08/18 03:15:58;;;;;;;12.37;6.53;;;;;;;21.77;68.91;98885.14;1734975;82;21003;-45
2022/08/18 03:18:27;;;;;;;12.00;6.75;;;;;;;21.73;68.88;98883.11;1735115;82;21077;-45
2022/08/18 03:20:57;;;;;;;12.45;5.97;;;;;;;21.70;68.98;98877.09;1734840;82;23179;-45
2022/08/18 03:23:23;;;;;;;12.45;6.40;;;;;;;21.74;68.95;98881.88;1735124;82;21497;-45
2022/08/18 03:25:51;;;;;;;13.60;6.95;;;;;;;21.77;68.94;98882.98;1735009;82;21484;-45
2022/08/18 03:28:18;;;;;;;10.58;6.10;;;;;;;21.77;68.92;98875.48;1734984;82;20942;-45
2022/08/18 03:30:45;;;;;;;13.32;6.78;;;;;;;21.78;68.77;98877.02;1735113;82;21123;-45
2022/08/18 03:33:12;;;;;;;11.78;5.87;;;;;;;21.80;68.63;98872.42;1735237;82;21230;-45
2022/08/18 03:35:40;;;;;;;7.90;5.97;;;;;;;21.82;68.60;98876.89;1735088;82;20961;-45
2022/08/18 03:38:07;;;;;;;11.80;6.08;;;;;;;21.88;68.45;98878.63;1735125;82;21551;-45
2022/08/18 03:40:35;;;;;;;10.72;6.30;;;;;;;21.93;68.13;98876.70;1735096;82;20989;-45
2022/08/18 03:43:05;;;;;;;10.70;6.67;;;;;;;21.95;68.11;98877.04;1735066;82;21021;-45
2022/08/18 03:45:33;;;;;;;10.77;6.50;;;;;;;21.95;68.13;98875.66;1735747;82;21195;-45
2022/08/18 03:48:00;;;;;;;11.50;5.70;;;;;;;21.95;68.17;98878.42;1735076;82;20986;-45
2022/08/18 03:50:28;;;;;;;11.60;6.00;;;;;;;21.97;68.03;98881.52;1735109;82;20958;-45
2022/08/18 03:52:58;;;;;;;9.93;5.85;;;;;;;22.03;67.91;98881.08;1735092;82;21089;-45
2022/08/18 03:55:28;;;;;;;10.72;6.17;;;;;;;22.07;67.88;98891.39;1735287;82;21042;-45
2022/08/18 03:58:02;;;;;;;9.43;6.10;;;;;;;22.06;67.82;98881.59;1734989;82;21237;-45
2022/08/18 04:00:30;;;;;;;9.65;5.90;;;;;;;22.08;67.70;98895.69;1735127;82;21509;-45
2022/08/18 04:03:00;;;;;;;12.93;6.40;;;;;;;22.07;67.58;98887.24;1741582;81;20949;-45
2022/08/18 04:05:28;;;;;;;;;;;;;;;22.13;67.46;98898.48;1746011;82;20921;-45
2022/08/18 04:07:56;;;;;;;11.73;6.05;;;;;;;22.19;67.20;98893.94;1743258;82;20183;-45
2022/08/18 04:10:24;;;;;;;12.40;6.55;;;;;;;22.10;67.35;98886.97;1743257;82;21148;-45
2022/08/18 04:12:51;;;;;;;9.98;6.12;;;;;;;22.15;67.22;98892.53;1742901;82;21563;-45
2022/08/18 04:15:18;;;;;;;13.30;6.65;;;;;;;22.19;67.10;98900.07;1743233;82;20961;-45
2022/08/18 04:17:46;;;;;;;11.45;6.45;;;;;;;22.20;66.85;98902.39;1742946;82;21669;-45
2022/08/18 04:20:13;;;;;;;10.53;5.83;;;;;;;22.20;66.68;98896.87;1743428;82;21496;-45
2022/08/18 04:22:39;;;;;;;12.18;5.75;;;;;;;22.21;66.80;98906.70;1743111;82;21214;-45
2022/08/18 04:25:10;;;;;;;10.75;6.22;;;;;;;22.29;66.59;98901.69;1742732;82;21020;-45
2022/08/18 04:27:41;;;;;;;11.75;6.90;;;;;;;22.34;66.46;98902.48;1743165;82;21386;-45
2022/08/18 04:30:10;;;;;;;11.33;6.28;;;;;;;22.37;66.36;98905.72;1742992;82;21526;-45
2022/08/18 04:32:38;;;;;;;11.75;6.12;;;;;;;22.38;66.45;98902.52;1743068;82;21081;-45
2022/08/18 04:35:06;;;;;;;9.93;6.00;;;;;;;22.41;66.23;98910.53;1742918;82;23251;-45
2022/08/18 04:37:36;;;;;;;11.18;5.70;;;;;;;22.42;66.01;98910.06;1742939;82;21001;-45
2022/08/18 04:40:04;;;;;;;;;;;;;;;22.44;65.87;98909.63;1745484;82;21520;-45
2022/08/18 04:42:31;;;;;;;12.18;6.15;;;;;;;22.52;65.70;98917.80;1743289;81;20178;-45
2022/08/18 04:44:59;;;;;;;12.90;5.50;;;;;;;22.48;65.65;98914.40;1743055;82;20994;-45
2022/08/18 04:47:26;;;;;;;9.55;6.40;;;;;;;22.52;65.71;98908.12;1743246;82;21140;-45
2022/08/18 04:49:53;;;;;;;10.00;5.58;;;;;;;22.58;65.36;98906.94;1743198;82;21528;-45
2022/08/18 04:55:07;;;;;;;12.20;5.95;;;;;;;22.65;65.03;98912.22;1742873;82;22156;-45
2022/08/18 04:57:34;;;;;;;12.75;6.50;;;;;;;22.65;65.40;98909.45;1743126;82;21607;-45
2022/08/18 05:00:03;;;;;;;8.98;5.28;;;;;;;22.68;65.34;98916.83;1743251;82;21123;-45
2022/08/18 05:02:31;;;;;;;11.90;5.80;;;;;;;22.75;64.62;98919.37;1746257;81;21002;-45
2022/08/18 05:05:02;;;;;;;9.53;6.00;;;;;;;22.78;64.39;98913.70;1749140;82;21002;-45
2022/08/18 05:07:28;;;;;;;11.38;6.30;;;;;;;22.80;64.12;98916.77;1749220;82;20976;-45
2022/08/18 05:09:55;;;;;;;12.93;6.12;;;;;;;22.85;63.87;98909.91;1749123;82;21052;-45
2022/08/18 05:12:22;;;;;;;10.40;5.90;;;;;;;22.87;63.77;98915.73;1749230;82;21301;-45
2022/08/18 05:17:14;;;;;;;8.68;5.80;;;;;;;22.95;62.97;98906.72;1797079;79;23288;-45
2022/08/18 05:19:43;;;;;;;10.55;6.37;;;;;;;22.86;63.13;98904.52;1754231;81;20980;-45
2022/08/18 05:22:10;;;;;;;16.85;5.60;;;;;;;22.89;62.79;98908.55;1754187;81;21878;-45
2022/08/18 05:24:38;;;;;;;9.03;5.58;;;;;;;22.95;62.58;98906.72;1753933;81;21518;-45
2022/08/18 05:27:06;;;;;;;10.58;5.70;;;;;;;23.02;62.51;98907.67;1754136;81;20945;-45
2022/08/18 05:29:37;;;;;;;10.68;5.65;;;;;;;23.06;62.05;98911.83;1754093;81;21135;-45
2022/08/18 05:32:06;;;;;;;10.98;6.12;;;;;;;23.11;62.33;98916.00;1754317;81;21008;-45
2022/08/18 05:34:34;;;;;;;10.50;6.55;;;;;;;23.15;62.28;98916.63;1754432;81;21076;-45
2022/08/18 05:37:13;;;;;;;12.43;6.30;;;;;;;23.20;62.15;98916.03;1753976;81;21021;-45
2022/08/18 05:39:51;;;;;;;12.37;6.28;;;;;;;23.23;61.88;98922.06;1754526;81;20929;-45
2022/08/18 05:42:19;;;;;;;9.43;6.05;;;;;;;23.27;61.88;98927.60;1754110;81;21080;-45
2022/08/18 05:44:49;;;;;;;7.90;5.75;;;;;;;23.29;62.11;98922.37;1754269;81;20960;-45
2022/08/18 05:47:27;;;;;;;14.73;5.62;;;;;;;23.38;61.86;98929.31;1754428;81;21543;-45
2022/08/18 05:50:11;;;;;;;10.45;5.90;;;;;;;23.48;61.15;98932.91;1754075;81;21483;-45
2022/08/18 05:53:02;;;;;;;12.20;5.67;;;;;;;23.54;60.56;98928.93;1754420;81;21479;-45
2022/08/18 05:58:30;;;;;;;11.78;5.70;;;;;;;23.62;60.23;98930.97;1754339;81;21013;-45
2022/08/18 06:01:02;;;;;;;7.90;5.80;;;;;;;23.67;59.90;98930.34;1754350;81;21124;-45
2022/08/18 06:03:36;;;;;;;13.28;5.80;;;;;;;23.72;59.60;98941.45;1754197;81;21522;-45
2022/08/18 06:06:07;;;;;;;8.43;5.58;;;;;;;23.76;59.77;98939.30;1754444;81;20910;-45
2022/08/18 06:08:42;;;;;;;10.00;4.95;;;;;;;23.80;59.53;98943.46;1752773;81;20991;-45
2022/08/18 06:11:11;;;;;;;11.15;6.03;;;;;;;23.86;59.33;98935.94;1756435;81;21016;-45
2022/08/18 06:13:40;;;;;;;12.07;5.60;;;;;;;23.88;58.78;98941.16;1756843;81;21308;-46
2022/08/18 06:16:33;;;;;;;10.40;5.80;;;;;;;23.98;58.03;98940.55;1751529;81;21049;-46
2022/08/18 06:19:25;;;;;;;9.63;5.75;;;;;;;23.98;58.03;98940.55;1743660;82;21299;-46
2022/08/18 06:22:17;;;;;;;8.33;5.55;;;;;;;23.99;58.13;98942.87;1738835;82;21344;-43
2022/08/18 06:25:05;;;;;;;11.22;5.37;;;;;;;23.99;57.98;98942.09;1700435;84;21531;-43
2022/08/18 06:27:54;;;;;;;8.60;5.30;;;;;;;24.03;57.34;98944.09;1753988;81;22173;-46
2022/08/18 06:30:44;;;;;;;8.33;4.92;;;;;;;24.08;57.37;98939.33;1757414;81;21039;-46
2022/08/18 06:33:30;;;;;;;13.55;5.67;;;;;;;24.13;57.45;98944.26;1759006;81;20969;-46
2022/08/18 06:36:02;;;;;;;9.95;5.90;;;;;;;24.20;57.80;98946.77;1758539;81;21020;-46
2022/08/18 06:38:47;;;;;;;9.93;5.83;;;;;;;24.25;57.67;98944.77;1758796;81;21033;-46
2022/08/18 06:41:22;;;;;;;9.68;6.03;;;;;;;24.32;57.49;98947.21;1758993;81;21248;-46
2022/08/18 06:44:06;;;;;;;10.60;5.78;;;;;;;24.38;57.39;98945.38;1759176;81;21622;-46
2022/08/18 06:46:56;;;;;;;12.20;6.08;;;;;;;24.45;58.02;98946.43;1756001;81;21065;-46
2022/08/18 06:49:40;;;;;;;7.67;5.70;;;;;;;24.51;57.10;98939.04;1738739;81;20938;-47
2022/08/18 06:52:28;;;;;;;7.50;5.28;;;;;;;24.57;56.52;98939.96;1713230;82;21317;-46
2022/08/18 06:54:59;;;;;;;8.63;5.53;;;;;;;24.63;56.24;98940.89;1679158;85;21103;-46
2022/08/18 06:57:34;;;;;;;7.87;5.22;;;;;;;24.69;55.98;98945.16;1678252;85;20968;-46
2022/08/18 07:00:10;;;;;;;8.83;4.92;;;;;;;24.75;55.98;98941.16;1713626;83;20945;-46
2022/08/18 07:02:55;;;;;;;9.90;5.17;;;;;;;24.81;55.50;98943.45;1713804;82;21073;-46
2022/08/18 07:05:30;;;;;;;8.98;5.58;;;;;;;24.88;55.04;98940.41;1679352;85;21060;-46
2022/08/18 07:08:13;;;;;;;14.58;5.35;;;;;;;24.97;54.34;98950.08;1713617;83;20981;-46
2022/08/18 07:10:46;;;;;;;9.93;5.05;;;;;;;25.05;53.96;98945.73;1713761;82;21559;-46
2022/08/18 07:13:25;;;;;;;11.78;4.97;;;;;;;25.13;54.13;98944.16;1713465;82;21006;-46
2022/08/18 07:15:54;;;;;;;11.10;4.70;;;;;;;25.22;53.71;98946.92;1713887;82;21499;-46
2022/08/18 07:18:27;;;;;;;9.48;4.87;;;;;;;25.32;53.72;98947.66;1679657;85;21092;-46
2022/08/18 07:21:00;;;;;;;11.75;4.80;;;;;;;25.40;53.02;98944.06;1679040;85;21137;-46
2022/08/18 07:23:39;;;;;;;8.03;5.20;;;;;;;25.51;52.99;98949.84;1691173;84;21035;-46
2022/08/18 07:26:17;;;;;;;6.60;4.50;;;;;;;25.61;53.26;98941.52;1728810;82;21033;-46
2022/08/18 07:28:48;;;;;;;10.95;5.20;;;;;;;25.66;53.32;98940.23;1741655;82;21492;-46
2022/08/18 07:31:29;;;;;;;8.33;4.95;;;;;;;25.76;53.71;98945.11;1734955;82;21046;-46
2022/08/18 07:34:07;;;;;;;9.75;4.83;;;;;;;25.84;53.54;98946.31;1734704;82;21244;-46
2022/08/18 07:36:46;;;;;;;10.28;5.08;;;;;;;25.95;51.87;98944.52;1735031;82;20995;-46
2022/08/18 07:39:22;;;;;;;6.47;4.53;;;;;;;26.08;52.12;98943.52;1733338;82;21677;-46
2022/08/18 07:42:07;;;;;;;9.75;4.62;;;;;;;26.21;52.15;98946.22;1734151;82;21528;-46
2022/08/18 07:44:47;;;;;;;9.08;4.70;;;;;;;26.33;51.50;98947.98;1734222;82;20994;-46
2022/08/18 07:47:23;;;;;;;7.10;4.40;;;;;;;26.45;51.12;98945.41;1735102;82;23221;-46
2022/08/18 07:49:51;;;;;;;6.85;4.33;;;;;;;26.53;50.20;98941.02;1735459;82;21022;-46
2022/08/18 07:52:21;;;;;;;7.35;4.62;;;;;;;26.60;49.91;98937.23;1713825;83;21437;-47
2022/08/18 07:55:00;;;;;;;8.38;4.30;;;;;;;26.68;48.84;98932.05;1713559;82;21016;-46
2022/08/18 07:57:44;;;;;;;9.10;3.73;;;;;;;26.76;47.86;98929.05;1713920;83;21061;-46
2022/08/18 08:00:24;;;;;;;9.80;4.03;;;;;;;26.82;47.72;98922.93;1678896;85;21199;-46
2022/08/18 08:03:17;;;;;;;8.50;4.33;;;;;;;26.90;47.58;98921.34;1679342;85;21543;-46
2022/08/18 08:06:13;;;;;;;5.53;4.03;;;;;;;27.01;47.97;98930.50;1676370;85;21582;-46
2022/08/18 08:09:07;;;;;;;9.08;4.45;;;;;;;27.10;47.28;98925.59;1713728;83;21057;-46
2022/08/18 08:11:56;;;;;;;9.73;3.55;;;;;;;27.13;46.13;98930.19;1713846;83;21000;-46
2022/08/18 08:14:37;;;;;;;5.97;3.80;;;;;;;27.21;46.39;98931.32;1679413;85;21242;-46
2022/08/18 08:17:35;;;;;;;8.10;3.90;;;;;;;27.32;45.96;98931.34;1683703;84;21879;-46
2022/08/18 08:20:13;;;;;;;13.15;4.45;;;;;;;27.42;46.46;98938.33;1719764;83;21021;-46
2022/08/18 08:23:16;;;;;;;9.35;4.35;;;;;;;27.52;46.41;98941.17;1721680;83;21076;-46
2022/08/18 08:26:08;;;;;;;8.13;3.90;;;;;;;27.63;45.91;98946.28;1721433;82;21068;-46
2022/08/18 08:28:42;;;;;;;8.48;3.77;;;;;;;27.74;44.86;98943.52;1721459;83;21300;-46
2022/08/18 08:31:37;;;;;;;9.40;4.00;;;;;;;27.83;45.08;98944.77;1686431;85;20944;-46
2022/08/18 08:34:10;;;;;;;9.55;4.28;;;;;;;27.91;44.95;98943.86;1721166;83;21589;-46
2022/08/18 08:36:43;;;;;;;11.48;3.80;;;;;;;28.00;44.56;98942.33;1750210;82;21547;-46
2022/08/18 08:39:35;;;;;;;9.50;4.47;;;;;;;28.09;44.27;98948.38;1751332;82;20984;-45
2022/08/18 08:42:17;;;;;;;6.15;3.90;;;;;;;28.20;44.80;98943.60;1751476;82;23186;-43
2022/08/18 08:45:02;;;;;;;7.42;3.60;;;;;;;28.26;44.54;98945.83;1712284;83;20997;-42
2022/08/18 08:48:05;;;;;;;9.90;4.00;;;;;;;28.31;43.49;98944.51;1751659;82;21009;-43
2022/08/18 08:50:42;;;;;;;11.78;3.75;;;;;;;28.35;43.03;98945.05;1669156;84;21518;-42
2022/08/18 08:53:25;;;;;;;9.73;3.87;;;;;;;28.38;42.37;98941.90;1736611;81;21104;-43
2022/08/18 08:55:58;;;;;;;7.22;3.62;;;;;;;28.40;43.19;98940.80;1745279;82;21245;-43
2022/08/18 08:58:45;;;;;;;8.23;3.65;;;;;;;28.43;43.03;98940.57;1747491;82;21018;-43
2022/08/18 09:01:37;;;;;;;9.73;3.75;;;;;;;28.50;42.57;98929.62;1719755;83;21007;-43
2022/08/18 09:04:45;;;;;;;8.70;3.47;;;;;;;28.53;42.59;98934.20;1742656;82;21718;-43
2022/08/18 09:07:40;;;;;;;11.33;4.37;;;;;;;28.61;42.84;98935.29;1748121;82;21042;-42
2022/08/18 09:10:42;;;;;;;10.32;3.72;;;;;;;28.71;42.04;98940.87;1700006;81;21096;-43
2022/08/18 09:13:23;;;;;;;11.43;4.03;;;;;;;28.78;42.04;98950.84;1745423;81;21106;-43
2022/08/18 09:16:13;;;;;;;9.03;4.42;;;;;;;28.85;41.19;98948.36;1747738;82;21032;-43
2022/08/18 09:19:08;;;;;;;5.00;3.65;;;;;;;28.87;40.83;98954.22;1726468;81;20998;-43
2022/08/18 09:21:51;;;;;;;10.50;3.80;;;;;;;28.89;41.36;98954.50;1752120;81;21552;-43
2022/08/18 09:24:29;;;;;;;10.25;4.33;;;;;;;28.98;40.96;98947.20;1748934;82;23140;-47
2022/08/18 09:27:13;;;;;;;8.60;4.10;;;;;;;29.02;40.24;98943.56;1748000;82;20969;-47
2022/08/18 09:29:59;;;;;;;8.88;3.92;;;;;;;28.99;40.51;98953.70;1749243;82;20973;-47
2022/08/18 09:32:40;;;;;;;7.15;3.60;;;;;;;29.00;40.86;98952.41;1714713;81;21027;-43
2022/08/18 09:35:34;;;;;;;6.10;4.12;;;;;;;29.07;40.69;98951.98;1724015;82;21080;-44
2022/08/18 09:44:10;;;;;;;10.20;4.10;;;;;;;29.34;40.54;98954.24;1751608;82;20961;-43
2022/08/18 09:46:51;;;;;;;11.25;4.22;;;;;;;29.52;40.62;98950.31;1714881;83;21024;-43
2022/08/18 09:49:29;;;;;;;10.03;4.40;;;;;;;29.74;40.62;98950.44;1751554;81;21088;-43
2022/08/18 09:52:12;;;;;;;5.65;3.58;;;;;;;29.98;40.11;98945.11;1715186;83;23119;-43
2022/08/18 09:54:52;;;;;;;9.63;3.92;;;;;;;30.15;40.12;98950.92;1657917;85;20999;-43
2022/08/18 09:57:27;;;;;;;9.35;4.60;;;;;;;30.30;39.76;98955.55;1751310;82;21029;-43
2022/08/18 10:00:12;;;;;;;6.95;3.75;;;;;;;30.46;39.34;98947.84;1715018;83;21016;-43
2022/08/18 10:02:44;;;;;;;9.88;4.15;;;;;;;30.63;39.53;98949.42;1751380;81;21495;-43
2022/08/18 10:05:20;;;;;;;7.45;4.62;;;;;;;30.82;38.97;98947.53;1751467;82;21140;-43
2022/08/18 10:08:00;;;;;;;8.20;3.95;;;;;;;30.96;39.03;98947.92;1751592;82;21773;-43
2022/08/18 10:10:50;;;;;;;9.05;4.17;;;;;;;31.12;38.52;98938.80;1715488;83;21032;-43
2022/08/18 10:13:46;;;;;;;9.60;4.10;;;;;;;31.26;38.58;98948.97;1710599;83;21072;-44
2022/08/18 10:16:31;;;;;;;14.80;4.22;;;;;;;31.39;38.25;98941.44;1751243;82;21025;-43
2022/08/18 10:19:28;;;;;;;7.12;4.08;;;;;;;31.46;37.40;98943.09;1751422;82;21243;-43
2022/08/18 10:22:00;;;;;;;10.38;4.45;;;;;;;31.53;37.34;98949.43;1715352;83;21000;-43
2022/08/18 10:24:42;;;;;;;10.98;4.33;;;;;;;31.60;37.47;98941.94;1715314;83;21024;-43
2022/08/18 10:27:43;;;;;;;8.05;4.00;;;;;;;31.70;37.40;98950.20;1751311;81;21017;-44
2022/08/18 10:30:30;;;;;;;8.88;4.37;;;;;;;31.80;38.16;98942.41;1715334;83;21068;-43
2022/08/18 10:32:57;;;;;;;9.50;3.87;;;;;;;31.88;36.96;98948.22;1747795;82;23146;-44
2022/08/18 10:35:39;;;;;;;5.58;3.90;;;;;;;31.97;36.93;98948.57;1715619;83;21503;-44
2022/08/18 10:38:28;;;;;;;10.20;4.08;;;;;;;32.12;36.37;98952.62;1715486;83;21091;-43
2022/08/18 10:41:15;;;;;;;10.35;3.67;;;;;;;32.27;36.46;98950.89;1715530;83;21460;-44
2022/08/18 10:43:46;;;;;;;9.55;4.20;;;;;;;32.43;36.01;98946.48;1721297;82;20998;-44
2022/08/18 10:46:22;;;;;;;7.12;4.40;;;;;;;32.58;36.25;98960.94;1732667;82;21182;-44
2022/08/18 10:49:14;;;;;;;6.67;4.00;;;;;;;32.72;36.28;98951.44;1750816;82;21383;-44
2022/08/18 10:51:53;;;;;;;9.90;4.05;;;;;;;32.94;35.87;98944.23;1715447;83;20996;-44
2022/08/18 10:54:34;;;;;;;7.90;3.60;;;;;;;33.14;34.82;98939.61;1751226;81;21029;-44
2022/08/18 10:57:36;;;;;;;7.12;3.80;;;;;;;33.20;34.57;98939.59;1714801;83;21049;-44
2022/08/18 11:00:13;;;;;;;9.60;3.60;;;;;;;33.27;34.59;98940.41;1751066;81;21204;-44
2022/08/18 11:03:05;;;;;;;7.50;3.92;;;;;;;33.47;34.50;98938.55;1715368;83;20941;-43
2022/08/18 11:05:32;;;;;;;7.92;4.10;;;;;;;33.76;33.84;98932.01;1751328;82;20922;-43
2022/08/18 11:08:03;;;;;;;10.60;3.85;;;;;;;33.93;34.06;98945.24;1715191;83;21047;-47
2022/08/18 11:10:47;;;;;;;10.93;4.00;;;;;;;34.13;33.49;98948.94;1732555;82;21555;-47
2022/08/18 11:13:23;;;;;;;;;;;;;;;34.31;32.64;98946.06;1753272;81;21149;-44
2022/08/18 11:15:55;;;;;;;11.90;3.92;;;;;;;34.48;33.01;98949.39;1751036;82;20136;-44
2022/08/18 11:18:37;;;;;;;11.78;3.65;;;;;;;34.65;32.71;98949.93;1755042;81;20964;-44
2022/08/18 11:21:39;;;;;;;7.22;3.20;;;;;;;34.98;31.80;98947.91;1694255;83;21067;-44
2022/08/18 11:24:19;;;;;;;5.17;3.37;;;;;;;35.24;31.00;98939.56;1720842;83;21522;-43
2022/08/18 11:27:03;;;;;;;8.60;3.45;;;;;;;35.40;30.51;98934.26;1720968;83;21871;-44
2022/08/18 11:29:34;;;;;;;7.87;3.80;;;;;;;35.53;30.86;98930.06;1720176;82;20968;-44
2022/08/18 11:32:25;;;;;;;11.60;3.80;;;;;;;35.77;30.66;98926.94;1702178;84;21222;-44
2022/08/18 11:35:26;;;;;;;12.63;3.92;;;;;;;35.98;30.46;98927.77;1704746;83;21066;-44
2022/08/18 11:38:03;;;;;;;6.90;3.60;;;;;;;36.14;30.01;98918.23;1708168;83;21002;-44
2022/08/18 11:40:36;;;;;;;13.62;4.25;;;;;;;36.24;30.36;98922.77;1708744;83;21049;-47
2022/08/18 11:43:17;;;;;;;8.85;3.83;;;;;;;36.40;29.75;98925.23;1716041;83;21045;-47
2022/08/18 11:45:53;;;;;;;5.42;3.45;;;;;;;36.53;29.57;98919.53;1721052;83;20993;-47
2022/08/18 11:48:37;;;;;;;7.22;3.50;;;;;;;36.73;29.37;98921.55;1718783;83;21041;-47
2022/08/18 11:51:19;;;;;;;6.33;3.30;;;;;;;36.83;28.89;98918.35;1679151;85;21053;-47
2022/08/18 11:54:09;;;;;;;6.50;3.58;;;;;;;36.92;28.77;98919.28;1715875;83;21253;-47
2022/08/18 11:56:36;;;;;;;11.00;3.45;;;;;;;37.07;28.60;98917.24;1685550;84;21038;-47
2022/08/18 11:59:10;;;;;;;7.85;3.65;;;;;;;37.10;28.19;98909.84;1709955;83;21073;-47
2022/08/18 12:01:44;;;;;;;6.92;3.17;;;;;;;37.10;28.49;98916.16;1706331;83;21104;-47
2022/08/18 12:04:39;;;;;;;7.15;3.37;;;;;;;37.22;28.33;98908.91;1709966;83;21072;-47
2022/08/18 12:07:11;;;;;;;8.95;3.40;;;;;;;37.41;28.38;98924.33;1708373;83;21001;-47
2022/08/18 12:10:24;;;;;;;6.25;3.72;;;;;;;37.65;27.48;98918.19;1700703;83;21019;-47
2022/08/18 12:12:52;;;;;;;6.53;3.37;;;;;;;37.88;27.21;98916.89;1679111;84;21063;-47
2022/08/18 12:15:28;;;;;;;9.93;3.87;;;;;;;38.10;27.12;98912.77;1704443;83;21097;-47
2022/08/18 12:17:55;;;;;;;6.45;3.60;;;;;;;38.21;26.50;98905.36;1692554;83;21029;-47
2022/08/18 12:20:22;;;;;;;7.37;3.50;;;;;;;38.26;26.71;98909.34;1696464;84;21296;-47
2022/08/18 12:22:49;;;;;;;7.62;3.58;;;;;;;38.41;26.68;98908.63;1699613;84;21493;-47
2022/08/18 12:25:18;;;;;;;8.48;3.15;;;;;;;38.57;26.50;98915.22;1699405;84;21049;-47
2022/08/18 12:27:44;;;;;;;6.62;3.47;;;;;;;38.74;26.47;98914.66;1699445;84;20990;-47
2022/08/18 12:30:12;;;;;;;6.05;3.00;;;;;;;38.95;26.42;98920.20;1698244;84;21029;-47